createdAt,value
2022-07-26T00:01:32.201Z,28.01
2022-07-26T00:04:00.818Z,27.88
2022-07-26T00:06:28.591Z,27.82
2022-07-26T00:08:56.381Z,27.56
2022-07-26T00:11:23.851Z,27.50
2022-07-26T00:14:17.161Z,27.39
2022-07-26T00:16:44.499Z,27.36
2022-07-26T00:19:12.043Z,27.22
2022-07-26T00:21:40.903Z,27.15
2022-07-26T00:24:08.870Z,27.06
2022-07-26T00:26:36.794Z,26.97
2022-07-26T00:29:06.017Z,26.87
2022-07-26T00:31:33.869Z,26.71
2022-07-26T00:34:01.447Z,26.59
2022-07-26T00:36:30.110Z,26.48
2022-07-26T00:38:58.007Z,26.48
2022-07-26T00:41:25.346Z,26.43
2022-07-26T00:43:53.809Z,26.71
2022-07-26T00:46:21.278Z,27.01
2022-07-26T00:48:48.672Z,27.16
2022-07-26T00:51:16.235Z,26.79
2022-07-26T00:53:45.750Z,26.87
2022-07-26T00:56:14.646Z,27.03
2022-07-26T00:58:43.229Z,27.10
2022-07-26T01:01:12.726Z,27.13
2022-07-26T01:03:40.213Z,27.05
2022-07-26T01:06:08.186Z,27.27
2022-07-26T01:08:35.957Z,27.44
2022-07-26T01:11:04.236Z,27.33
2022-07-26T01:13:35.307Z,26.77
2022-07-26T01:16:04.074Z,26.40
2022-07-26T01:18:31.999Z,26.52
2022-07-26T01:21:09.542Z,26.79
2022-07-26T01:23:42.638Z,27.01
2022-07-26T01:26:10.824Z,26.69
2022-07-26T01:28:39.653Z,26.42
2022-07-26T01:31:08.230Z,26.43
2022-07-26T01:33:35.922Z,26.66
2022-07-26T01:36:03.516Z,26.80
2022-07-26T01:38:30.815Z,26.91
2022-07-26T01:40:58.110Z,26.80
2022-07-26T01:43:25.346Z,26.82
2022-07-26T01:45:55.185Z,26.91
2022-07-26T01:48:22.744Z,27.00
2022-07-26T01:50:49.973Z,27.04
2022-07-26T01:53:17.212Z,27.04
2022-07-26T01:55:44.360Z,27.06
2022-07-26T01:58:11.578Z,26.85
2022-07-26T02:00:38.706Z,26.91
2022-07-26T02:03:05.968Z,26.55
2022-07-26T02:05:33.259Z,26.36
2022-07-26T02:08:00.604Z,26.57
2022-07-26T02:10:50.947Z,26.77
2022-07-26T02:13:18.129Z,26.56
2022-07-26T02:15:45.366Z,26.58
2022-07-26T02:18:12.597Z,26.55
2022-07-26T02:20:39.756Z,26.44
2022-07-26T02:23:07.005Z,26.33
2022-07-26T02:25:34.173Z,26.13
2022-07-26T02:28:01.633Z,25.95
2022-07-26T02:30:29.137Z,25.90
2022-07-26T02:32:57.090Z,26.03
2022-07-26T02:35:24.325Z,26.13
2022-07-26T02:37:51.506Z,26.06
2022-07-26T02:40:19.644Z,26.05
2022-07-26T02:42:46.887Z,25.93
2022-07-26T02:45:14.131Z,25.88
2022-07-26T02:47:51.592Z,26.16
2022-07-26T02:50:20.430Z,26.02
2022-07-26T02:52:48.340Z,25.76
2022-07-26T02:55:16.516Z,25.56
2022-07-26T02:57:46.219Z,25.64
2022-07-26T03:00:16.399Z,25.57
2022-07-26T03:02:43.783Z,25.58
2022-07-26T03:05:11.206Z,25.43
2022-07-26T03:07:38.471Z,25.23
2022-07-26T03:10:05.843Z,25.19
2022-07-26T03:12:33.138Z,25.42
2022-07-26T03:15:00.678Z,25.61
2022-07-26T03:17:27.944Z,25.84
2022-07-26T03:19:55.137Z,25.95
2022-07-26T03:22:22.374Z,26.13
2022-07-26T03:24:49.566Z,26.22
2022-07-26T03:27:16.759Z,25.83
2022-07-26T03:29:44.022Z,25.49
2022-07-26T03:32:11.355Z,25.53
2022-07-26T03:34:38.570Z,25.75
2022-07-26T03:37:05.906Z,25.99
2022-07-26T03:39:33.179Z,26.15
2022-07-26T03:42:00.459Z,26.20
2022-07-26T03:44:27.701Z,25.87
2022-07-26T03:46:55.070Z,25.90
2022-07-26T03:49:22.455Z,26.03
2022-07-26T03:51:49.815Z,25.96
2022-07-26T03:54:17.153Z,25.88
2022-07-26T03:56:44.557Z,25.54
2022-07-26T03:59:12.031Z,25.80
2022-07-26T04:01:42.194Z,25.93
2022-07-26T04:04:10.579Z,26.04
2022-07-26T04:06:39.456Z,26.03
2022-07-26T04:09:07.396Z,26.05
2022-07-26T04:11:35.635Z,26.11
2022-07-26T04:14:03.022Z,25.92
2022-07-26T04:16:30.307Z,26.01
2022-07-26T04:18:57.645Z,26.00
2022-07-26T04:21:24.980Z,25.85
2022-07-26T04:23:55.156Z,25.95
2022-07-26T04:26:22.478Z,25.97
2022-07-26T04:28:49.848Z,25.99
2022-07-26T04:31:17.151Z,25.96
2022-07-26T04:33:47.625Z,25.99
2022-07-26T04:36:15.938Z,26.03
2022-07-26T04:38:43.558Z,26.03
2022-07-26T04:41:11.023Z,26.12
2022-07-26T04:43:38.351Z,26.05
2022-07-26T04:46:05.803Z,26.07
2022-07-26T04:48:33.267Z,26.10
2022-07-26T04:51:01.735Z,26.04
2022-07-26T04:53:28.998Z,25.95
2022-07-26T04:55:56.321Z,25.93
2022-07-26T04:58:24.238Z,26.13
2022-07-26T05:03:39.156Z,26.23
2022-07-26T05:06:06.950Z,26.34
2022-07-26T05:08:34.236Z,26.48
2022-07-26T05:11:01.631Z,26.47
2022-07-26T05:13:30.538Z,26.55
2022-07-26T05:15:59.601Z,26.79
2022-07-26T05:18:27.644Z,26.91
2022-07-26T05:20:57.259Z,26.96
2022-07-26T05:23:24.627Z,27.20
2022-07-26T05:25:51.902Z,27.45
2022-07-26T05:28:19.297Z,27.46
2022-07-26T05:30:47.051Z,27.56
2022-07-26T05:33:16.413Z,27.55
2022-07-26T05:35:44.434Z,27.55
2022-07-26T05:38:11.732Z,27.50
2022-07-26T05:40:38.973Z,27.54
2022-07-26T05:43:06.281Z,27.55
2022-07-26T05:45:33.588Z,27.61
2022-07-26T05:48:00.989Z,27.64
2022-07-26T05:50:28.546Z,28.41
2022-07-26T05:52:55.813Z,28.60
2022-07-26T05:55:23.033Z,28.37
2022-07-26T05:57:50.265Z,28.22
2022-07-26T06:00:17.575Z,27.93
2022-07-26T06:02:44.872Z,28.03
2022-07-26T06:05:12.168Z,28.09
2022-07-26T06:07:39.414Z,28.06
2022-07-26T06:10:06.873Z,28.02
2022-07-26T06:12:34.185Z,28.13
2022-07-26T06:15:01.522Z,28.21
2022-07-26T06:17:30.307Z,28.04
2022-07-26T06:19:58.405Z,27.89
2022-07-26T06:22:25.958Z,27.90
2022-07-26T06:24:53.231Z,27.76
2022-07-26T06:27:20.551Z,28.02
2022-07-26T06:29:49.147Z,28.22
2022-07-26T06:32:16.430Z,28.28
2022-07-26T06:34:43.773Z,28.21
2022-07-26T06:37:14.919Z,28.06
2022-07-26T06:39:42.184Z,28.17
2022-07-26T06:42:09.389Z,28.21
2022-07-26T06:44:38.019Z,28.36
2022-07-26T06:47:05.276Z,28.37
2022-07-26T06:49:32.609Z,28.25
2022-07-26T06:51:59.947Z,28.31
2022-07-26T06:54:27.334Z,28.29
2022-07-26T06:56:54.801Z,28.35
2022-07-26T06:59:22.076Z,28.49
2022-07-26T07:01:58.433Z,28.50
2022-07-26T07:04:31.747Z,28.34
2022-07-26T07:07:05.157Z,28.35
2022-07-26T07:09:33.637Z,28.43
2022-07-26T07:12:09.902Z,28.39
2022-07-26T07:14:38.242Z,28.39
2022-07-26T07:17:12.083Z,28.50
2022-07-26T07:19:41.368Z,28.40
2022-07-26T07:22:11.849Z,28.54
2022-07-26T07:24:39.983Z,28.56
2022-07-26T07:27:07.449Z,28.54
2022-07-26T07:29:34.956Z,28.70
2022-07-26T07:32:03.558Z,28.99
2022-07-26T07:34:30.890Z,28.90
2022-07-26T07:36:58.163Z,28.89
2022-07-26T07:39:27.275Z,28.83
2022-07-26T07:42:02.640Z,28.94
2022-07-26T07:44:29.807Z,29.07
2022-07-26T07:46:57.215Z,29.21
2022-07-26T07:49:24.687Z,29.30
2022-07-26T07:51:51.999Z,29.38
2022-07-26T07:54:19.249Z,29.42
2022-07-26T07:56:50.457Z,29.52
2022-07-26T07:59:18.766Z,29.66
2022-07-26T08:01:46.076Z,29.75
2022-07-26T08:04:13.382Z,29.83
2022-07-26T08:06:41.345Z,29.93
2022-07-26T08:09:09.339Z,30.09
2022-07-26T08:11:41.875Z,29.95
2022-07-26T08:14:10.077Z,30.18
2022-07-26T08:16:37.408Z,30.36
2022-07-26T08:19:04.712Z,30.59
2022-07-26T08:21:31.993Z,30.47
2022-07-26T08:23:59.462Z,30.46
2022-07-26T08:26:26.748Z,30.68
2022-07-26T08:28:59.477Z,31.02
2022-07-26T08:31:36.813Z,31.25
2022-07-26T08:34:04.191Z,31.33
2022-07-26T08:36:32.938Z,31.49
2022-07-26T08:39:01.320Z,31.49
2022-07-26T08:41:28.726Z,31.70
2022-07-26T08:44:04.131Z,31.95
2022-07-26T08:46:34.440Z,32.16
2022-07-26T08:49:01.801Z,32.38
2022-07-26T08:51:30.792Z,32.25
2022-07-26T08:54:05.295Z,32.28
2022-07-26T08:56:34.115Z,32.60
2022-07-26T08:59:17.120Z,32.86
2022-07-26T09:01:51.574Z,33.04
2022-07-26T09:04:31.624Z,32.98
2022-07-26T09:07:10.421Z,33.02
2022-07-26T09:09:39.298Z,33.38
2022-07-26T09:12:17.015Z,33.51
2022-07-26T09:14:46.799Z,33.61
2022-07-26T09:17:15.142Z,33.44
2022-07-26T09:19:42.429Z,33.53
2022-07-26T09:22:13.549Z,33.63
2022-07-26T09:24:42.492Z,33.77
2022-07-26T09:27:11.211Z,33.90
2022-07-26T09:29:47.458Z,34.22
2022-07-26T09:32:18.934Z,34.25
2022-07-26T09:34:52.536Z,34.14
2022-07-26T09:37:56.488Z,34.28
2022-07-26T09:40:30.996Z,33.65
2022-07-26T09:42:59.907Z,33.57
2022-07-26T09:45:27.889Z,34.60
2022-07-26T09:47:57.997Z,34.74
2022-07-26T09:50:29.758Z,34.80
2022-07-26T09:53:08.258Z,34.68
2022-07-26T09:55:44.720Z,34.75
2022-07-26T09:58:14.209Z,34.23
2022-07-26T10:00:42.216Z,34.05
2022-07-26T10:03:09.820Z,34.29
2022-07-26T10:05:37.931Z,34.26
2022-07-26T10:08:05.419Z,34.35
2022-07-26T10:10:55.908Z,34.20
2022-07-26T10:13:23.527Z,34.34
2022-07-26T10:15:51.911Z,34.41
2022-07-26T10:18:39.123Z,34.47
2022-07-26T10:21:20.425Z,34.40
2022-07-26T10:23:50.120Z,34.37
2022-07-26T10:26:37.747Z,34.08
2022-07-26T10:29:17.179Z,34.05
2022-07-26T10:31:48.757Z,33.75
2022-07-26T10:34:32.697Z,33.66
2022-07-26T10:37:01.355Z,33.83
2022-07-26T10:39:28.815Z,33.95
2022-07-26T10:42:00.897Z,33.97
2022-07-26T10:44:29.036Z,33.93
2022-07-26T10:47:02.269Z,33.75
2022-07-26T10:50:03.183Z,33.88
2022-07-26T10:52:32.376Z,33.90
2022-07-26T10:55:06.552Z,33.90
2022-07-26T10:57:42.993Z,33.93
2022-07-26T11:00:17.678Z,33.94
2022-07-26T11:02:48.737Z,33.72
2022-07-26T11:05:17.730Z,33.59
2022-07-26T11:07:55.793Z,33.69
2022-07-26T11:10:24.768Z,33.79
2022-07-26T11:13:18.268Z,33.84
2022-07-26T11:15:47.239Z,33.71
2022-07-26T11:18:16.722Z,33.81
2022-07-26T11:20:44.944Z,33.93
2022-07-26T11:23:27.781Z,33.92
2022-07-26T11:26:02.183Z,33.78
2022-07-26T11:28:30.010Z,33.64
2022-07-26T11:31:00.229Z,33.74
2022-07-26T11:33:37.968Z,33.88
2022-07-26T11:36:06.146Z,33.89
2022-07-26T11:38:45.635Z,33.74
2022-07-26T11:41:15.196Z,33.60
2022-07-26T11:43:42.947Z,33.75
2022-07-26T11:46:10.409Z,33.90
2022-07-26T11:48:45.309Z,33.95
2022-07-26T11:51:14.123Z,33.88
2022-07-26T11:53:41.776Z,33.90
2022-07-26T11:56:20.597Z,33.85
2022-07-26T11:58:51.878Z,33.91
2022-07-26T12:01:20.182Z,34.01
2022-07-26T12:03:48.908Z,34.13
2022-07-26T12:06:17.723Z,34.15
2022-07-26T12:08:55.758Z,34.15
2022-07-26T12:11:25.558Z,34.20
2022-07-26T12:14:00.060Z,34.19
2022-07-26T12:16:34.202Z,34.30
2022-07-26T12:19:01.581Z,34.26
2022-07-26T12:21:39.407Z,34.11
2022-07-26T12:24:07.206Z,33.89
2022-07-26T12:26:34.921Z,34.13
2022-07-26T12:29:20.898Z,34.14
2022-07-26T12:32:00.751Z,34.14
2022-07-26T12:34:27.985Z,33.86
2022-07-26T12:36:55.228Z,33.85
2022-07-26T12:39:22.524Z,33.71
2022-07-26T12:41:50.575Z,33.71
2022-07-26T12:44:17.818Z,33.70
2022-07-26T12:46:45.147Z,33.56
2022-07-26T12:49:12.605Z,33.67
2022-07-26T12:51:40.071Z,33.77
2022-07-26T12:54:07.646Z,33.85
2022-07-26T12:56:35.160Z,33.94
2022-07-26T12:59:02.383Z,33.98
2022-07-26T13:01:30.037Z,33.98
2022-07-26T13:03:57.325Z,34.13
2022-07-26T13:06:24.586Z,33.99
2022-07-26T13:08:51.818Z,34.08
2022-07-26T13:11:19.014Z,34.05
2022-07-26T13:13:46.210Z,34.10
2022-07-26T13:16:13.386Z,33.87
2022-07-26T13:18:40.627Z,33.73
2022-07-26T13:21:07.854Z,33.74
2022-07-26T13:23:35.850Z,33.76
2022-07-26T13:26:04.420Z,33.81
2022-07-26T13:28:36.915Z,33.91
2022-07-26T13:31:04.227Z,34.02
2022-07-26T13:33:32.328Z,33.95
2022-07-26T13:35:59.512Z,34.03
2022-07-26T13:38:28.384Z,34.01
2022-07-26T13:40:56.517Z,33.92
2022-07-26T13:43:24.521Z,33.94
2022-07-26T13:45:51.873Z,33.92
2022-07-26T13:48:19.357Z,33.96
2022-07-26T13:50:46.894Z,33.97
2022-07-26T13:53:14.189Z,34.00
2022-07-26T13:55:41.780Z,34.00
2022-07-26T13:58:10.293Z,34.03
2022-07-26T14:00:38.206Z,33.95
2022-07-26T14:03:05.814Z,33.89
2022-07-26T14:05:33.419Z,33.96
2022-07-26T14:08:00.737Z,33.86
2022-07-26T14:10:28.161Z,33.92
2022-07-26T14:12:55.472Z,34.00
2022-07-26T14:15:23.642Z,34.00
2022-07-26T14:17:51.643Z,33.97
2022-07-26T14:20:19.222Z,33.82
2022-07-26T14:22:47.669Z,33.83
2022-07-26T14:25:14.962Z,33.89
2022-07-26T14:27:42.288Z,33.87
2022-07-26T14:30:09.920Z,33.85
2022-07-26T14:32:37.212Z,34.00
2022-07-26T14:35:04.841Z,33.87
2022-07-26T14:37:43.571Z,33.92
2022-07-26T14:40:31.056Z,33.76
2022-07-26T14:42:58.214Z,33.73
2022-07-26T14:45:25.516Z,33.71
2022-07-26T14:47:52.676Z,33.94
2022-07-26T14:50:19.998Z,33.84
2022-07-26T14:52:47.620Z,33.76
2022-07-26T14:55:15.310Z,33.71
2022-07-26T14:57:42.578Z,33.90
2022-07-26T15:00:10.985Z,33.98
2022-07-26T15:02:39.673Z,33.99
2022-07-26T15:05:07.078Z,33.86
2022-07-26T15:07:34.390Z,33.91
2022-07-26T15:10:01.736Z,33.88
2022-07-26T15:12:28.969Z,33.90
2022-07-26T15:14:56.766Z,33.97
2022-07-26T15:17:24.028Z,34.00
2022-07-26T15:19:51.301Z,33.89
2022-07-26T15:22:18.528Z,33.85
2022-07-26T15:24:45.717Z,33.72
2022-07-26T15:27:12.993Z,33.75
2022-07-26T15:29:41.332Z,33.64
2022-07-26T15:32:08.604Z,33.52
2022-07-26T15:34:35.876Z,33.57
2022-07-26T15:37:03.210Z,33.59
2022-07-26T15:39:30.538Z,33.65
2022-07-26T15:42:05.404Z,33.58
2022-07-26T15:44:36.821Z,33.45
2022-07-26T15:47:04.652Z,33.31
2022-07-26T15:49:31.965Z,33.24
2022-07-26T15:51:59.295Z,33.19
2022-07-26T15:54:26.557Z,33.09
2022-07-26T15:56:53.693Z,33.18
2022-07-26T15:59:21.025Z,33.19
2022-07-26T16:01:48.227Z,33.17
2022-07-26T16:04:15.521Z,33.09
2022-07-26T16:06:42.921Z,33.13
2022-07-26T16:09:17.206Z,33.07
2022-07-26T16:11:45.821Z,33.14
2022-07-26T16:14:12.997Z,33.22
2022-07-26T16:16:40.238Z,33.21
2022-07-26T16:19:07.854Z,33.28
2022-07-26T16:21:35.311Z,33.21
2022-07-26T16:24:06.655Z,33.03
2022-07-26T16:26:35.481Z,32.97
2022-07-26T16:29:02.963Z,33.07
2022-07-26T16:31:30.565Z,33.11
2022-07-26T16:33:57.790Z,33.13
2022-07-26T16:36:25.139Z,33.13
2022-07-26T16:38:55.110Z,32.98
2022-07-26T16:41:22.893Z,32.95
2022-07-26T16:43:50.527Z,32.99
2022-07-26T16:46:18.125Z,32.90
2022-07-26T16:48:45.543Z,32.87
2022-07-26T16:51:16.776Z,32.83
2022-07-26T16:53:45.272Z,32.81
2022-07-26T16:56:12.542Z,32.77
2022-07-26T16:58:39.957Z,32.75
2022-07-26T17:01:07.767Z,32.77
2022-07-26T17:03:35.393Z,32.59
2022-07-26T17:06:06.685Z,32.56
2022-07-26T17:08:34.608Z,32.53
2022-07-26T17:11:02.193Z,32.54
2022-07-26T17:13:29.466Z,32.55
2022-07-26T17:15:56.811Z,32.37
2022-07-26T17:18:24.297Z,32.32
2022-07-26T17:20:51.554Z,32.20
2022-07-26T17:23:19.509Z,32.19
2022-07-26T17:25:46.772Z,32.18
2022-07-26T17:28:14.291Z,32.21
2022-07-26T17:30:41.531Z,32.20
2022-07-26T17:33:08.936Z,32.17
2022-07-26T17:35:36.425Z,32.04
2022-07-26T17:38:04.441Z,32.03
2022-07-26T17:40:33.750Z,31.99
2022-07-26T17:43:01.104Z,31.96
2022-07-26T17:45:28.361Z,31.88
2022-07-26T17:47:55.614Z,31.67
2022-07-26T17:50:38.864Z,31.59
2022-07-26T17:53:06.565Z,31.53
2022-07-26T17:55:33.950Z,31.47
2022-07-26T17:58:01.233Z,31.40
2022-07-26T18:00:28.930Z,31.36
2022-07-26T18:02:57.060Z,31.33
2022-07-26T18:05:31.744Z,31.30
2022-07-26T18:08:01.587Z,31.18
2022-07-26T18:10:29.215Z,31.18
2022-07-26T18:12:56.475Z,31.12
2022-07-26T18:15:23.754Z,31.05
2022-07-26T18:17:51.078Z,31.02
2022-07-26T18:20:18.426Z,31.05
2022-07-26T18:22:50.182Z,30.95
2022-07-26T18:25:17.876Z,30.90
2022-07-26T18:27:45.264Z,30.85
2022-07-26T18:30:12.706Z,30.81
2022-07-26T18:32:40.149Z,30.71
2022-07-26T18:35:07.551Z,30.70
2022-07-26T18:37:34.778Z,30.70
2022-07-26T18:40:02.084Z,30.60
2022-07-26T18:42:29.309Z,30.67
2022-07-26T18:44:56.509Z,30.54
2022-07-26T18:47:23.726Z,30.53
2022-07-26T18:49:51.391Z,30.47
2022-07-26T18:52:28.559Z,30.42
2022-07-26T18:55:00.972Z,30.34
2022-07-26T18:57:28.200Z,30.28
2022-07-26T18:59:55.339Z,30.25
2022-07-26T19:02:22.555Z,30.23
2022-07-26T19:04:49.784Z,30.25
2022-07-26T19:07:17.023Z,30.18
2022-07-26T19:09:44.225Z,30.14
2022-07-26T19:12:11.397Z,30.12
2022-07-26T19:14:38.589Z,30.11
2022-07-26T19:17:09.783Z,30.12
2022-07-26T19:19:37.582Z,30.12
2022-07-26T19:22:05.429Z,30.22
2022-07-26T19:24:41.806Z,30.12
2022-07-26T19:27:09.492Z,30.06
2022-07-26T19:29:37.616Z,29.96
2022-07-26T19:32:05.450Z,29.95
2022-07-26T19:34:32.832Z,29.97
2022-07-26T19:37:00.058Z,29.93
2022-07-26T19:39:27.284Z,29.96
2022-07-26T19:41:54.608Z,29.97
2022-07-26T19:44:22.091Z,29.97
2022-07-26T19:46:53.011Z,29.95
2022-07-26T19:49:22.800Z,30.00
2022-07-26T19:51:50.133Z,30.01
2022-07-26T19:54:17.318Z,30.05
2022-07-26T19:56:44.498Z,30.01
2022-07-26T19:59:12.041Z,30.04
2022-07-26T20:01:39.725Z,30.01
2022-07-26T20:04:07.011Z,29.95
2022-07-26T20:06:35.309Z,29.92
2022-07-26T20:09:02.462Z,29.91
2022-07-26T20:11:29.640Z,29.90
2022-07-26T20:13:56.831Z,29.93
2022-07-26T20:16:24.075Z,29.93
2022-07-26T20:18:51.308Z,29.89
2022-07-26T20:21:18.587Z,29.81
2022-07-26T20:23:45.908Z,29.81
2022-07-26T20:26:14.323Z,29.76
2022-07-26T20:28:42.132Z,29.63
2022-07-26T20:31:09.352Z,29.69
2022-07-26T20:33:36.636Z,29.73
2022-07-26T20:36:03.945Z,29.75
2022-07-26T20:38:31.136Z,29.69
2022-07-26T20:41:05.319Z,29.69
2022-07-26T20:43:34.511Z,29.60
2022-07-26T20:46:02.243Z,29.63
2022-07-26T20:48:29.826Z,29.63
2022-07-26T20:50:57.130Z,29.64
2022-07-26T20:53:25.001Z,29.61
2022-07-26T20:55:52.244Z,29.59
2022-07-26T20:58:20.112Z,29.51
2022-07-26T21:00:47.409Z,29.47
2022-07-26T21:03:16.867Z,29.42
2022-07-26T21:05:44.785Z,29.41
2022-07-26T21:08:12.246Z,29.35
2022-07-26T21:10:39.682Z,29.32
2022-07-26T21:13:06.996Z,29.29
2022-07-26T21:15:34.674Z,29.29
2022-07-26T21:18:01.843Z,29.18
2022-07-26T21:20:29.245Z,29.20
2022-07-26T21:23:08.077Z,29.16
2022-07-26T21:25:43.737Z,29.09
2022-07-26T21:28:11.284Z,29.07
2022-07-26T21:30:38.655Z,29.10
2022-07-26T21:33:06.145Z,29.06
2022-07-26T21:35:33.605Z,29.15
2022-07-26T21:38:01.088Z,29.14
2022-07-26T21:40:28.408Z,29.16
2022-07-26T21:42:55.615Z,29.17
2022-07-26T21:45:22.789Z,29.14
2022-07-26T21:47:50.015Z,29.19
2022-07-26T21:50:17.291Z,29.26
2022-07-26T21:52:44.479Z,29.33
2022-07-26T21:55:15.547Z,29.29
2022-07-26T21:57:45.484Z,29.30
2022-07-26T22:00:14.712Z,29.28
2022-07-26T22:02:42.122Z,29.30
2022-07-26T22:05:27.716Z,29.34
2022-07-26T22:07:55.573Z,29.31
2022-07-26T22:10:22.797Z,29.25
2022-07-26T22:12:50.017Z,29.19
2022-07-26T22:15:17.276Z,29.22
2022-07-26T22:17:44.527Z,29.22
2022-07-26T22:20:11.965Z,29.19
2022-07-26T22:22:39.340Z,29.13
2022-07-26T22:25:06.748Z,29.06
2022-07-26T22:27:34.521Z,29.02
2022-07-26T22:30:02.741Z,29.08
2022-07-26T22:32:29.954Z,29.15
2022-07-26T22:34:57.173Z,29.13
2022-07-26T22:37:24.400Z,29.16
2022-07-26T22:39:51.608Z,29.21
2022-07-26T22:42:18.859Z,29.15
2022-07-26T22:44:46.092Z,29.17
2022-07-26T22:47:13.258Z,29.17
2022-07-26T22:49:40.550Z,29.19
2022-07-26T22:52:07.887Z,29.14
2022-07-26T22:54:35.044Z,29.12
2022-07-26T22:57:02.294Z,29.14
2022-07-26T22:59:29.479Z,29.12
2022-07-26T23:01:56.993Z,29.18
2022-07-26T23:04:24.189Z,29.24
2022-07-26T23:06:52.065Z,29.30
2022-07-26T23:09:22.039Z,29.28
2022-07-26T23:11:49.248Z,29.26
2022-07-26T23:14:16.511Z,29.22
2022-07-26T23:16:43.721Z,29.20
2022-07-26T23:19:11.447Z,29.21
2022-07-26T23:21:38.852Z,29.24
2022-07-26T23:24:06.211Z,29.26
2022-07-26T23:26:33.429Z,29.26
2022-07-26T23:29:00.662Z,29.28
2022-07-26T23:31:27.964Z,29.27
2022-07-26T23:33:55.196Z,29.23
2022-07-26T23:36:26.244Z,29.23
2022-07-26T23:38:54.314Z,29.43
2022-07-26T23:41:21.573Z,29.41
2022-07-26T23:43:48.767Z,29.36
2022-07-26T23:46:16.194Z,29.34
2022-07-26T23:48:43.514Z,29.36
2022-07-26T23:51:10.741Z,29.38
2022-07-26T23:53:37.999Z,29.35
2022-07-26T23:56:05.288Z,29.39
2022-07-26T23:58:32.456Z,29.39
